sensor_id;sensor_type;location;lat;lon;timestamp;P1;durP1;ratioP1;P2;durP2;ratioP2
70543;SDS011;58097;48.364;-1.224;2023-04-06T00:00:35;21.27;;;13.93;;
70543;SDS011;58097;48.364;-1.224;2023-04-06T00:03:01;24.08;;;13.80;;
70543;SDS011;58097;48.364;-1.224;2023-04-06T00:05:26;23.38;;;14.63;;
70543;SDS011;58097;48.364;-1.224;2023-04-06T00:07:52;19.92;;;13.55;;
70543;SDS011;58097;48.364;-1.224;2023-04-06T00:10:20;23.50;;;14.18;;
70543;SDS011;58097;48.364;-1.224;2023-04-06T00:12:46;22.20;;;12.98;;
70543;SDS011;58097;48.364;-1.224;2023-04-06T00:15:11;22.83;;;13.75;;
70543;SDS011;58097;48.364;-1.224;2023-04-06T00:17:36;21.80;;;13.70;;
70543;SDS011;58097;48.364;-1.224;2023-04-06T00:20:02;21.15;;;14.13;;
70543;SDS011;58097;48.364;-1.224;2023-04-06T00:22:27;22.10;;;12.60;;
70543;SDS011;58097;48.364;-1.224;2023-04-06T00:24:53;26.80;;;13.55;;
70543;SDS011;58097;48.364;-1.224;2023-04-06T00:27:18;23.77;;;13.40;;
70543;SDS011;58097;48.364;-1.224;2023-04-06T00:29:44;18.92;;;12.25;;
70543;SDS011;58097;48.364;-1.224;2023-04-06T00:32:09;20.88;;;12.77;;
70543;SDS011;58097;48.364;-1.224;2023-04-06T00:34:35;23.73;;;13.45;;
70543;SDS011;58097;48.364;-1.224;2023-04-06T00:37:00;25.45;;;13.40;;
70543;SDS011;58097;48.364;-1.224;2023-04-06T00:39:26;21.60;;;13.25;;
70543;SDS011;58097;48.364;-1.224;2023-04-06T00:41:51;23.67;;;14.25;;
70543;SDS011;58097;48.364;-1.224;2023-04-06T00:44:17;19.15;;;11.82;;
70543;SDS011;58097;48.364;-1.224;2023-04-06T00:46:43;21.65;;;13.60;;
70543;SDS011;58097;48.364;-1.224;2023-04-06T00:49:09;20.70;;;12.90;;
70543;SDS011;58097;48.364;-1.224;2023-04-06T00:51:35;21.58;;;13.90;;
70543;SDS011;58097;48.364;-1.224;2023-04-06T00:54:00;24.77;;;15.27;;
70543;SDS011;58097;48.364;-1.224;2023-04-06T00:56:25;25.30;;;14.05;;
70543;SDS011;58097;48.364;-1.224;2023-04-06T00:58:51;21.23;;;14.05;;
70543;SDS011;58097;48.364;-1.224;2023-04-06T01:01:17;27.42;;;15.10;;
70543;SDS011;58097;48.364;-1.224;2023-04-06T01:03:42;22.60;;;13.30;;
70543;SDS011;58097;48.364;-1.224;2023-04-06T01:06:09;27.98;;;15.27;;
70543;SDS011;58097;48.364;-1.224;2023-04-06T01:08:35;21.05;;;13.20;;
70543;SDS011;58097;48.364;-1.224;2023-04-06T01:11:01;26.30;;;14.63;;
70543;SDS011;58097;48.364;-1.224;2023-04-06T01:13:26;20.38;;;12.68;;
70543;SDS011;58097;48.364;-1.224;2023-04-06T01:15:52;23.95;;;14.43;;
70543;SDS011;58097;48.364;-1.224;2023-04-06T01:18:18;22.83;;;13.93;;
70543;SDS011;58097;48.364;-1.224;2023-04-06T01:20:43;29.92;;;15.25;;
70543;SDS011;58097;48.364;-1.224;2023-04-06T01:23:08;24.75;;;14.23;;
70543;SDS011;58097;48.364;-1.224;2023-04-06T01:25:34;31.25;;;15.68;;
70543;SDS011;58097;48.364;-1.224;2023-04-06T01:27:59;28.10;;;15.05;;
70543;SDS011;58097;48.364;-1.224;2023-04-06T01:30:25;28.63;;;15.00;;
70543;SDS011;58097;48.364;-1.224;2023-04-06T01:32:50;25.60;;;14.18;;
70543;SDS011;58097;48.364;-1.224;2023-04-06T01:35:17;26.98;;;14.73;;
70543;SDS011;58097;48.364;-1.224;2023-04-06T01:37:43;24.85;;;15.43;;
70543;SDS011;58097;48.364;-1.224;2023-04-06T01:40:09;29.73;;;15.30;;
70543;SDS011;58097;48.364;-1.224;2023-04-06T01:42:35;32.20;;;16.00;;
70543;SDS011;58097;48.364;-1.224;2023-04-06T01:45:00;23.50;;;14.10;;
70543;SDS011;58097;48.364;-1.224;2023-04-06T01:47:26;22.98;;;13.93;;
70543;SDS011;58097;48.364;-1.224;2023-04-06T01:49:51;29.08;;;15.13;;
70543;SDS011;58097;48.364;-1.224;2023-04-06T01:52:17;23.95;;;15.88;;
70543;SDS011;58097;48.364;-1.224;2023-04-06T01:54:43;26.63;;;15.52;;
70543;SDS011;58097;48.364;-1.224;2023-04-06T01:57:09;23.90;;;13.38;;
70543;SDS011;58097;48.364;-1.224;2023-04-06T01:59:35;27.13;;;14.27;;
70543;SDS011;58097;48.364;-1.224;2023-04-06T02:02:00;24.17;;;14.55;;
70543;SDS011;58097;48.364;-1.224;2023-04-06T02:04:26;22.63;;;14.07;;
70543;SDS011;58097;48.364;-1.224;2023-04-06T02:06:51;20.85;;;13.70;;
70543;SDS011;58097;48.364;-1.224;2023-04-06T02:09:16;22.88;;;12.95;;
70543;SDS011;58097;48.364;-1.224;2023-04-06T02:11:42;25.95;;;14.60;;
70543;SDS011;58097;48.364;-1.224;2023-04-06T02:14:07;23.40;;;14.50;;
70543;SDS011;58097;48.364;-1.224;2023-04-06T02:16:32;24.77;;;14.10;;
70543;SDS011;58097;48.364;-1.224;2023-04-06T02:18:58;26.60;;;14.27;;
70543;SDS011;58097;48.364;-1.224;2023-04-06T02:21:23;23.27;;;14.07;;
70543;SDS011;58097;48.364;-1.224;2023-04-06T02:23:49;23.45;;;14.23;;
70543;SDS011;58097;48.364;-1.224;2023-04-06T02:26:14;22.70;;;14.52;;
70543;SDS011;58097;48.364;-1.224;2023-04-06T02:28:40;26.02;;;13.90;;
70543;SDS011;58097;48.364;-1.224;2023-04-06T02:31:05;24.33;;;14.32;;
70543;SDS011;58097;48.364;-1.224;2023-04-06T02:33:31;23.98;;;14.38;;
70543;SDS011;58097;48.364;-1.224;2023-04-06T02:35:56;27.02;;;14.40;;
70543;SDS011;58097;48.364;-1.224;2023-04-06T02:38:22;25.45;;;14.20;;
70543;SDS011;58097;48.364;-1.224;2023-04-06T02:40:47;24.63;;;14.48;;
70543;SDS011;58097;48.364;-1.224;2023-04-06T02:43:12;25.92;;;15.23;;
70543;SDS011;58097;48.364;-1.224;2023-04-06T02:45:38;27.08;;;14.77;;
70543;SDS011;58097;48.364;-1.224;2023-04-06T02:48:03;29.90;;;15.63;;
70543;SDS011;58097;48.364;-1.224;2023-04-06T02:50:29;24.88;;;15.10;;
70543;SDS011;58097;48.364;-1.224;2023-04-06T02:52:54;25.70;;;15.85;;
70543;SDS011;58097;48.364;-1.224;2023-04-06T02:55:20;25.85;;;14.45;;
70543;SDS011;58097;48.364;-1.224;2023-04-06T02:57:45;29.65;;;15.93;;
70543;SDS011;58097;48.364;-1.224;2023-04-06T03:00:11;26.70;;;15.15;;
70543;SDS011;58097;48.364;-1.224;2023-04-06T03:02:37;26.90;;;15.98;;
70543;SDS011;58097;48.364;-1.224;2023-04-06T03:05:03;25.67;;;15.38;;
70543;SDS011;58097;48.364;-1.224;2023-04-06T03:07:28;29.52;;;15.55;;
70543;SDS011;58097;48.364;-1.224;2023-04-06T03:09:54;26.55;;;15.70;;
70543;SDS011;58097;48.364;-1.224;2023-04-06T03:12:20;24.77;;;15.48;;
70543;SDS011;58097;48.364;-1.224;2023-04-06T03:14:45;24.73;;;15.43;;
70543;SDS011;58097;48.364;-1.224;2023-04-06T03:17:11;28.33;;;15.68;;
70543;SDS011;58097;48.364;-1.224;2023-04-06T03:19:36;24.58;;;14.13;;
70543;SDS011;58097;48.364;-1.224;2023-04-06T03:22:01;28.90;;;14.38;;
70543;SDS011;58097;48.364;-1.224;2023-04-06T03:24:27;30.85;;;14.60;;
70543;SDS011;58097;48.364;-1.224;2023-04-06T03:26:52;29.00;;;14.93;;
70543;SDS011;58097;48.364;-1.224;2023-04-06T03:29:18;23.50;;;14.75;;
70543;SDS011;58097;48.364;-1.224;2023-04-06T03:31:43;28.63;;;16.73;;
70543;SDS011;58097;48.364;-1.224;2023-04-06T03:34:09;24.50;;;14.40;;
70543;SDS011;58097;48.364;-1.224;2023-04-06T03:36:34;24.92;;;14.77;;
70543;SDS011;58097;48.364;-1.224;2023-04-06T03:39:00;26.90;;;15.95;;
70543;SDS011;58097;48.364;-1.224;2023-04-06T03:41:25;27.08;;;16.58;;
70543;SDS011;58097;48.364;-1.224;2023-04-06T03:43:51;32.17;;;17.92;;
70543;SDS011;58097;48.364;-1.224;2023-04-06T03:46:17;29.02;;;16.85;;
70543;SDS011;58097;48.364;-1.224;2023-04-06T03:48:42;33.50;;;17.50;;
70543;SDS011;58097;48.364;-1.224;2023-04-06T03:51:07;29.67;;;17.38;;
70543;SDS011;58097;48.364;-1.224;2023-04-06T03:53:33;35.58;;;17.63;;
70543;SDS011;58097;48.364;-1.224;2023-04-06T03:55:58;36.38;;;17.95;;
70543;SDS011;58097;48.364;-1.224;2023-04-06T03:58:24;24.95;;;15.80;;
70543;SDS011;58097;48.364;-1.224;2023-04-06T04:00:49;34.55;;;18.48;;
70543;SDS011;58097;48.364;-1.224;2023-04-06T04:03:14;26.38;;;16.27;;
70543;SDS011;58097;48.364;-1.224;2023-04-06T04:05:40;32.78;;;16.75;;
70543;SDS011;58097;48.364;-1.224;2023-04-06T04:08:05;32.72;;;18.10;;
70543;SDS011;58097;48.364;-1.224;2023-04-06T04:10:31;32.97;;;17.13;;
70543;SDS011;58097;48.364;-1.224;2023-04-06T04:12:56;28.75;;;16.27;;
70543;SDS011;58097;48.364;-1.224;2023-04-06T04:15:21;28.10;;;16.13;;
70543;SDS011;58097;48.364;-1.224;2023-04-06T04:17:47;26.73;;;17.02;;
70543;SDS011;58097;48.364;-1.224;2023-04-06T04:20:14;24.10;;;15.88;;
70543;SDS011;58097;48.364;-1.224;2023-04-06T04:22:40;27.63;;;16.70;;
70543;SDS011;58097;48.364;-1.224;2023-04-06T04:25:06;29.83;;;17.15;;
70543;SDS011;58097;48.364;-1.224;2023-04-06T04:27:31;31.90;;;17.60;;
70543;SDS011;58097;48.364;-1.224;2023-04-06T04:29:57;35.40;;;16.67;;
70543;SDS011;58097;48.364;-1.224;2023-04-06T04:32:22;28.67;;;16.08;;
70543;SDS011;58097;48.364;-1.224;2023-04-06T04:34:47;25.83;;;14.98;;
70543;SDS011;58097;48.364;-1.224;2023-04-06T04:37:13;31.85;;;15.82;;
70543;SDS011;58097;48.364;-1.224;2023-04-06T04:39:38;30.35;;;16.40;;
70543;SDS011;58097;48.364;-1.224;2023-04-06T04:42:03;28.15;;;16.45;;
70543;SDS011;58097;48.364;-1.224;2023-04-06T04:44:29;26.85;;;15.27;;
70543;SDS011;58097;48.364;-1.224;2023-04-06T04:46:54;26.08;;;15.00;;
70543;SDS011;58097;48.364;-1.224;2023-04-06T04:49:19;26.27;;;15.20;;
70543;SDS011;58097;48.364;-1.224;2023-04-06T04:51:45;28.25;;;15.57;;
70543;SDS011;58097;48.364;-1.224;2023-04-06T04:54:10;29.17;;;16.25;;
70543;SDS011;58097;48.364;-1.224;2023-04-06T04:56:35;27.25;;;15.32;;
70543;SDS011;58097;48.364;-1.224;2023-04-06T04:59:01;32.30;;;15.43;;
70543;SDS011;58097;48.364;-1.224;2023-04-06T05:01:26;25.55;;;15.07;;
70543;SDS011;58097;48.364;-1.224;2023-04-06T05:03:52;24.40;;;14.40;;
70543;SDS011;58097;48.364;-1.224;2023-04-06T05:06:17;25.05;;;14.40;;
70543;SDS011;58097;48.364;-1.224;2023-04-06T05:08:44;23.77;;;14.98;;
70543;SDS011;58097;48.364;-1.224;2023-04-06T05:11:09;24.50;;;13.50;;
70543;SDS011;58097;48.364;-1.224;2023-04-06T05:13:35;23.13;;;13.95;;
70543;SDS011;58097;48.364;-1.224;2023-04-06T05:16:01;23.10;;;13.07;;
70543;SDS011;58097;48.364;-1.224;2023-04-06T05:18:26;25.15;;;14.55;;
70543;SDS011;58097;48.364;-1.224;2023-04-06T05:20:52;23.67;;;12.50;;
70543;SDS011;58097;48.364;-1.224;2023-04-06T05:23:17;19.58;;;10.50;;
70543;SDS011;58097;48.364;-1.224;2023-04-06T05:25:43;21.05;;;11.55;;
70543;SDS011;58097;48.364;-1.224;2023-04-06T05:28:08;20.40;;;12.45;;
70543;SDS011;58097;48.364;-1.224;2023-04-06T05:30:33;19.88;;;11.02;;
70543;SDS011;58097;48.364;-1.224;2023-04-06T05:33:00;16.52;;;11.75;;
70543;SDS011;58097;48.364;-1.224;2023-04-06T05:35:26;16.38;;;11.18;;
70543;SDS011;58097;48.364;-1.224;2023-04-06T05:37:51;17.27;;;10.02;;
70543;SDS011;58097;48.364;-1.224;2023-04-06T05:40:16;17.98;;;10.57;;
70543;SDS011;58097;48.364;-1.224;2023-04-06T05:42:42;18.83;;;9.95;;
70543;SDS011;58097;48.364;-1.224;2023-04-06T05:45:08;18.00;;;10.88;;
70543;SDS011;58097;48.364;-1.224;2023-04-06T05:47:35;15.82;;;10.13;;
70543;SDS011;58097;48.364;-1.224;2023-04-06T05:50:01;20.67;;;10.23;;
70543;SDS011;58097;48.364;-1.224;2023-04-06T05:52:26;20.83;;;10.85;;
70543;SDS011;58097;48.364;-1.224;2023-04-06T05:54:52;16.42;;;9.70;;
70543;SDS011;58097;48.364;-1.224;2023-04-06T05:57:17;16.38;;;10.30;;
70543;SDS011;58097;48.364;-1.224;2023-04-06T05:59:43;17.92;;;10.63;;
70543;SDS011;58097;48.364;-1.224;2023-04-06T06:02:08;15.77;;;10.30;;
70543;SDS011;58097;48.364;-1.224;2023-04-06T06:04:33;17.35;;;10.73;;
70543;SDS011;58097;48.364;-1.224;2023-04-06T06:06:59;13.98;;;10.20;;
70543;SDS011;58097;48.364;-1.224;2023-04-06T06:09:25;16.05;;;9.98;;
70543;SDS011;58097;48.364;-1.224;2023-04-06T06:11:51;18.38;;;9.98;;
70543;SDS011;58097;48.364;-1.224;2023-04-06T06:14:16;16.13;;;10.20;;
70543;SDS011;58097;48.364;-1.224;2023-04-06T06:16:42;17.52;;;10.82;;
70543;SDS011;58097;48.364;-1.224;2023-04-06T06:19:07;19.60;;;9.82;;
70543;SDS011;58097;48.364;-1.224;2023-04-06T06:21:32;16.33;;;9.88;;
70543;SDS011;58097;48.364;-1.224;2023-04-06T06:23:58;15.63;;;9.90;;
70543;SDS011;58097;48.364;-1.224;2023-04-06T06:26:23;15.60;;;10.00;;
70543;SDS011;58097;48.364;-1.224;2023-04-06T06:28:49;14.68;;;9.88;;
70543;SDS011;58097;48.364;-1.224;2023-04-06T06:31:14;16.38;;;9.13;;
70543;SDS011;58097;48.364;-1.224;2023-04-06T06:33:40;17.42;;;9.80;;
70543;SDS011;58097;48.364;-1.224;2023-04-06T06:36:05;16.02;;;9.70;;
70543;SDS011;58097;48.364;-1.224;2023-04-06T06:38:31;13.27;;;9.68;;
70543;SDS011;58097;48.364;-1.224;2023-04-06T06:40:56;12.82;;;8.95;;
70543;SDS011;58097;48.364;-1.224;2023-04-06T06:43:21;14.38;;;9.43;;
70543;SDS011;58097;48.364;-1.224;2023-04-06T06:45:47;16.33;;;9.77;;
70543;SDS011;58097;48.364;-1.224;2023-04-06T06:48:12;15.75;;;9.00;;
70543;SDS011;58097;48.364;-1.224;2023-04-06T06:50:37;16.23;;;9.02;;
70543;SDS011;58097;48.364;-1.224;2023-04-06T06:53:03;14.80;;;8.27;;
70543;SDS011;58097;48.364;-1.224;2023-04-06T06:55:28;14.43;;;8.40;;
70543;SDS011;58097;48.364;-1.224;2023-04-06T06:57:54;13.73;;;9.27;;
70543;SDS011;58097;48.364;-1.224;2023-04-06T07:00:19;17.77;;;9.20;;
70543;SDS011;58097;48.364;-1.224;2023-04-06T07:02:48;13.48;;;8.88;;
70543;SDS011;58097;48.364;-1.224;2023-04-06T07:05:13;14.88;;;9.27;;
70543;SDS011;58097;48.364;-1.224;2023-04-06T07:07:40;13.15;;;8.73;;
70543;SDS011;58097;48.364;-1.224;2023-04-06T07:10:06;10.35;;;8.57;;
70543;SDS011;58097;48.364;-1.224;2023-04-06T07:12:31;11.65;;;8.02;;
70543;SDS011;58097;48.364;-1.224;2023-04-06T07:14:57;13.93;;;8.10;;
70543;SDS011;58097;48.364;-1.224;2023-04-06T07:17:22;16.23;;;8.13;;
70543;SDS011;58097;48.364;-1.224;2023-04-06T07:19:47;12.77;;;8.38;;
70543;SDS011;58097;48.364;-1.224;2023-04-06T07:22:13;13.35;;;7.43;;
70543;SDS011;58097;48.364;-1.224;2023-04-06T07:24:38;15.05;;;9.15;;
70543;SDS011;58097;48.364;-1.224;2023-04-06T07:27:04;13.32;;;7.32;;
70543;SDS011;58097;48.364;-1.224;2023-04-06T07:29:29;15.43;;;8.73;;
70543;SDS011;58097;48.364;-1.224;2023-04-06T07:31:55;9.85;;;7.70;;
70543;SDS011;58097;48.364;-1.224;2023-04-06T07:34:21;15.20;;;7.70;;
70543;SDS011;58097;48.364;-1.224;2023-04-06T07:36:46;12.45;;;8.15;;
70543;SDS011;58097;48.364;-1.224;2023-04-06T07:39:12;18.48;;;9.18;;
70543;SDS011;58097;48.364;-1.224;2023-04-06T07:41:37;13.15;;;8.63;;
70543;SDS011;58097;48.364;-1.224;2023-04-06T07:44:03;14.25;;;8.60;;
70543;SDS011;58097;48.364;-1.224;2023-04-06T07:46:29;10.93;;;7.25;;
70543;SDS011;58097;48.364;-1.224;2023-04-06T07:48:56;10.80;;;7.63;;
70543;SDS011;58097;48.364;-1.224;2023-04-06T07:51:22;11.93;;;8.65;;
70543;SDS011;58097;48.364;-1.224;2023-04-06T07:53:47;12.32;;;8.20;;
70543;SDS011;58097;48.364;-1.224;2023-04-06T07:56:13;11.63;;;7.97;;
70543;SDS011;58097;48.364;-1.224;2023-04-06T07:58:40;13.70;;;8.18;;
70543;SDS011;58097;48.364;-1.224;2023-04-06T08:01:05;11.57;;;7.65;;
70543;SDS011;58097;48.364;-1.224;2023-04-06T08:03:32;13.80;;;7.57;;
70543;SDS011;58097;48.364;-1.224;2023-04-06T08:05:58;9.93;;;7.93;;
70543;SDS011;58097;48.364;-1.224;2023-04-06T08:08:24;13.15;;;8.85;;
70543;SDS011;58097;48.364;-1.224;2023-04-06T08:10:49;10.38;;;7.60;;
70543;SDS011;58097;48.364;-1.224;2023-04-06T08:13:15;10.73;;;7.68;;
70543;SDS011;58097;48.364;-1.224;2023-04-06T08:15:41;17.05;;;7.45;;
70543;SDS011;58097;48.364;-1.224;2023-04-06T08:18:06;14.82;;;8.27;;
70543;SDS011;58097;48.364;-1.224;2023-04-06T08:20:33;12.27;;;8.27;;
70543;SDS011;58097;48.364;-1.224;2023-04-06T08:22:58;10.00;;;7.20;;
70543;SDS011;58097;48.364;-1.224;2023-04-06T08:25:24;10.98;;;7.95;;
70543;SDS011;58097;48.364;-1.224;2023-04-06T08:27:49;13.70;;;8.38;;
70543;SDS011;58097;48.364;-1.224;2023-04-06T08:30:14;12.98;;;7.90;;
70543;SDS011;58097;48.364;-1.224;2023-04-06T08:32:40;11.10;;;7.43;;
70543;SDS011;58097;48.364;-1.224;2023-04-06T08:35:06;14.60;;;7.50;;
70543;SDS011;58097;48.364;-1.224;2023-04-06T08:37:32;11.02;;;8.13;;
70543;SDS011;58097;48.364;-1.224;2023-04-06T08:39:58;10.50;;;7.63;;
70543;SDS011;58097;48.364;-1.224;2023-04-06T08:42:25;12.15;;;8.05;;
70543;SDS011;58097;48.364;-1.224;2023-04-06T08:44:51;11.85;;;7.32;;
70543;SDS011;58097;48.364;-1.224;2023-04-06T08:47:17;13.15;;;7.32;;
70543;SDS011;58097;48.364;-1.224;2023-04-06T08:49:43;10.43;;;7.50;;
70543;SDS011;58097;48.364;-1.224;2023-04-06T08:52:10;8.35;;;6.60;;
70543;SDS011;58097;48.364;-1.224;2023-04-06T08:54:36;12.10;;;8.57;;
70543;SDS011;58097;48.364;-1.224;2023-04-06T08:57:02;10.73;;;7.18;;
70543;SDS011;58097;48.364;-1.224;2023-04-06T08:59:28;12.20;;;7.57;;
70543;SDS011;58097;48.364;-1.224;2023-04-06T09:01:53;13.57;;;6.75;;
70543;SDS011;58097;48.364;-1.224;2023-04-06T09:04:20;11.32;;;6.60;;
70543;SDS011;58097;48.364;-1.224;2023-04-06T09:06:45;11.98;;;7.07;;
70543;SDS011;58097;48.364;-1.224;2023-04-06T09:09:11;8.73;;;6.57;;
70543;SDS011;58097;48.364;-1.224;2023-04-06T09:11:43;10.48;;;6.28;;
70543;SDS011;58097;48.364;-1.224;2023-04-06T09:14:10;10.45;;;6.75;;
70543;SDS011;58097;48.364;-1.224;2023-04-06T09:16:43;12.93;;;5.75;;
70543;SDS011;58097;48.364;-1.224;2023-04-06T09:19:10;9.95;;;7.03;;
70543;SDS011;58097;48.364;-1.224;2023-04-06T09:21:36;9.98;;;6.82;;
70543;SDS011;58097;48.364;-1.224;2023-04-06T09:24:02;12.77;;;7.00;;
70543;SDS011;58097;48.364;-1.224;2023-04-06T09:26:28;9.77;;;5.90;;
70543;SDS011;58097;48.364;-1.224;2023-04-06T09:28:55;7.15;;;5.43;;
70543;SDS011;58097;48.364;-1.224;2023-04-06T09:31:27;14.88;;;5.88;;
70543;SDS011;58097;48.364;-1.224;2023-04-06T09:33:54;6.65;;;5.18;;
70543;SDS011;58097;48.364;-1.224;2023-04-06T09:36:28;7.65;;;5.78;;
70543;SDS011;58097;48.364;-1.224;2023-04-06T09:38:59;7.60;;;5.60;;
70543;SDS011;58097;48.364;-1.224;2023-04-06T09:41:36;11.70;;;5.50;;
70543;SDS011;58097;48.364;-1.224;2023-04-06T09:44:05;8.90;;;5.22;;
70543;SDS011;58097;48.364;-1.224;2023-04-06T09:46:33;8.38;;;5.63;;
70543;SDS011;58097;48.364;-1.224;2023-04-06T09:49:06;9.05;;;5.88;;
70543;SDS011;58097;48.364;-1.224;2023-04-06T09:51:37;6.30;;;4.50;;
70543;SDS011;58097;48.364;-1.224;2023-04-06T09:54:04;11.13;;;5.78;;
70543;SDS011;58097;48.364;-1.224;2023-04-06T09:56:31;5.97;;;4.40;;
70543;SDS011;58097;48.364;-1.224;2023-04-06T09:59:23;8.48;;;5.57;;
70543;SDS011;58097;48.364;-1.224;2023-04-06T10:01:56;8.93;;;4.90;;
70543;SDS011;58097;48.364;-1.224;2023-04-06T10:04:33;8.95;;;5.15;;
70543;SDS011;58097;48.364;-1.224;2023-04-06T10:07:05;6.82;;;5.10;;
70543;SDS011;58097;48.364;-1.224;2023-04-06T10:09:32;9.98;;;5.30;;
70543;SDS011;58097;48.364;-1.224;2023-04-06T10:12:04;8.27;;;4.40;;
70543;SDS011;58097;48.364;-1.224;2023-04-06T10:14:33;12.77;;;4.72;;
70543;SDS011;58097;48.364;-1.224;2023-04-06T10:17:05;6.75;;;4.20;;
70543;SDS011;58097;48.364;-1.224;2023-04-06T10:19:38;9.00;;;3.22;;
70543;SDS011;58097;48.364;-1.224;2023-04-06T10:22:23;7.90;;;2.90;;
70543;SDS011;58097;48.364;-1.224;2023-04-06T10:24:52;4.53;;;2.95;;
70543;SDS011;58097;48.364;-1.224;2023-04-06T10:27:26;4.97;;;2.55;;
70543;SDS011;58097;48.364;-1.224;2023-04-06T10:29:53;4.00;;;2.72;;
70543;SDS011;58097;48.364;-1.224;2023-04-06T10:32:19;5.93;;;3.45;;
70543;SDS011;58097;48.364;-1.224;2023-04-06T10:34:44;6.13;;;3.08;;
70543;SDS011;58097;48.364;-1.224;2023-04-06T10:37:13;4.82;;;2.75;;
70543;SDS011;58097;48.364;-1.224;2023-04-06T10:40:00;4.35;;;2.42;;
70543;SDS011;58097;48.364;-1.224;2023-04-06T10:42:25;6.53;;;2.38;;
70543;SDS011;58097;48.364;-1.224;2023-04-06T10:44:50;4.97;;;2.28;;
70543;SDS011;58097;48.364;-1.224;2023-04-06T10:47:17;5.00;;;2.85;;
70543;SDS011;58097;48.364;-1.224;2023-04-06T10:49:43;5.72;;;2.85;;
70543;SDS011;58097;48.364;-1.224;2023-04-06T10:52:08;4.55;;;2.60;;
70543;SDS011;58097;48.364;-1.224;2023-04-06T10:54:34;5.80;;;2.63;;
70543;SDS011;58097;48.364;-1.224;2023-04-06T10:59:31;4.78;;;2.60;;
70543;SDS011;58097;48.364;-1.224;2023-04-06T11:01:57;5.70;;;2.47;;
70543;SDS011;58097;48.364;-1.224;2023-04-06T11:04:22;3.70;;;2.78;;
70543;SDS011;58097;48.364;-1.224;2023-04-06T11:06:49;6.25;;;3.70;;
70543;SDS011;58097;48.364;-1.224;2023-04-06T11:09:27;5.20;;;2.47;;
70543;SDS011;58097;48.364;-1.224;2023-04-06T11:11:54;5.57;;;2.50;;
70543;SDS011;58097;48.364;-1.224;2023-04-06T11:14:21;6.13;;;3.15;;
70543;SDS011;58097;48.364;-1.224;2023-04-06T11:16:47;7.55;;;2.88;;
70543;SDS011;58097;48.364;-1.224;2023-04-06T11:19:14;7.68;;;2.92;;
70543;SDS011;58097;48.364;-1.224;2023-04-06T11:21:44;5.60;;;2.60;;
70543;SDS011;58097;48.364;-1.224;2023-04-06T11:24:13;2.63;;;2.33;;
70543;SDS011;58097;48.364;-1.224;2023-04-06T11:26:45;4.60;;;2.35;;
70543;SDS011;58097;48.364;-1.224;2023-04-06T11:29:15;6.30;;;2.47;;
70543;SDS011;58097;48.364;-1.224;2023-04-06T11:31:45;6.05;;;3.15;;
70543;SDS011;58097;48.364;-1.224;2023-04-06T11:34:12;5.10;;;2.60;;
70543;SDS011;58097;48.364;-1.224;2023-04-06T11:36:41;4.57;;;2.25;;
70543;SDS011;58097;48.364;-1.224;2023-04-06T11:39:07;5.82;;;2.67;;
70543;SDS011;58097;48.364;-1.224;2023-04-06T11:41:33;4.75;;;2.05;;
70543;SDS011;58097;48.364;-1.224;2023-04-06T11:44:00;4.18;;;1.83;;
70543;SDS011;58097;48.364;-1.224;2023-04-06T11:46:27;5.32;;;2.00;;
70543;SDS011;58097;48.364;-1.224;2023-04-06T11:48:53;6.38;;;2.38;;
70543;SDS011;58097;48.364;-1.224;2023-04-06T11:51:26;8.18;;;2.55;;
70543;SDS011;58097;48.364;-1.224;2023-04-06T11:53:52;4.43;;;2.45;;
70543;SDS011;58097;48.364;-1.224;2023-04-06T11:56:27;8.80;;;2.53;;
70543;SDS011;58097;48.364;-1.224;2023-04-06T11:58:57;6.95;;;2.10;;
70543;SDS011;58097;48.364;-1.224;2023-04-06T12:01:24;7.23;;;2.87;;
70543;SDS011;58097;48.364;-1.224;2023-04-06T12:03:51;8.43;;;3.40;;
70543;SDS011;58097;48.364;-1.224;2023-04-06T12:06:17;5.18;;;3.42;;
70543;SDS011;58097;48.364;-1.224;2023-04-06T12:08:43;5.47;;;2.90;;
70543;SDS011;58097;48.364;-1.224;2023-04-06T12:11:10;6.10;;;3.50;;
70543;SDS011;58097;48.364;-1.224;2023-04-06T12:13:35;8.45;;;2.70;;
70543;SDS011;58097;48.364;-1.224;2023-04-06T12:16:01;9.05;;;2.13;;
70543;SDS011;58097;48.364;-1.224;2023-04-06T12:18:26;4.13;;;2.10;;
70543;SDS011;58097;48.364;-1.224;2023-04-06T12:20:52;8.23;;;2.50;;
70543;SDS011;58097;48.364;-1.224;2023-04-06T12:23:18;7.65;;;2.30;;
70543;SDS011;58097;48.364;-1.224;2023-04-06T12:25:44;4.85;;;2.35;;
70543;SDS011;58097;48.364;-1.224;2023-04-06T12:28:09;5.00;;;2.10;;
70543;SDS011;58097;48.364;-1.224;2023-04-06T12:30:35;8.75;;;2.85;;
70543;SDS011;58097;48.364;-1.224;2023-04-06T12:33:00;9.52;;;2.88;;
70543;SDS011;58097;48.364;-1.224;2023-04-06T12:35:26;4.88;;;2.10;;
70543;SDS011;58097;48.364;-1.224;2023-04-06T12:37:51;6.20;;;2.60;;
70543;SDS011;58097;48.364;-1.224;2023-04-06T12:40:17;5.63;;;1.85;;
70543;SDS011;58097;48.364;-1.224;2023-04-06T12:42:42;5.35;;;2.05;;
70543;SDS011;58097;48.364;-1.224;2023-04-06T12:45:08;3.88;;;1.77;;
70543;SDS011;58097;48.364;-1.224;2023-04-06T12:47:34;6.72;;;2.13;;
70543;SDS011;58097;48.364;-1.224;2023-04-06T12:50:01;7.13;;;2.15;;
70543;SDS011;58097;48.364;-1.224;2023-04-06T12:52:27;7.22;;;1.67;;
70543;SDS011;58097;48.364;-1.224;2023-04-06T12:54:55;7.97;;;1.58;;
70543;SDS011;58097;48.364;-1.224;2023-04-06T12:57:20;5.65;;;1.77;;
70543;SDS011;58097;48.364;-1.224;2023-04-06T12:59:46;10.00;;;2.22;;
70543;SDS011;58097;48.364;-1.224;2023-04-06T13:02:12;8.93;;;1.98;;
70543;SDS011;58097;48.364;-1.224;2023-04-06T13:04:37;12.25;;;2.13;;
70543;SDS011;58097;48.364;-1.224;2023-04-06T13:07:03;8.05;;;2.25;;
70543;SDS011;58097;48.364;-1.224;2023-04-06T13:09:29;7.80;;;2.15;;
70543;SDS011;58097;48.364;-1.224;2023-04-06T13:11:54;5.68;;;1.98;;
70543;SDS011;58097;48.364;-1.224;2023-04-06T13:14:20;5.80;;;1.80;;
70543;SDS011;58097;48.364;-1.224;2023-04-06T13:16:45;4.78;;;1.80;;
70543;SDS011;58097;48.364;-1.224;2023-04-06T13:19:11;7.75;;;1.85;;
70543;SDS011;58097;48.364;-1.224;2023-04-06T13:21:36;9.43;;;2.40;;
70543;SDS011;58097;48.364;-1.224;2023-04-06T13:24:02;16.33;;;2.85;;
70543;SDS011;58097;48.364;-1.224;2023-04-06T13:26:27;8.70;;;1.45;;
70543;SDS011;58097;48.364;-1.224;2023-04-06T13:28:53;11.30;;;3.75;;
70543;SDS011;58097;48.364;-1.224;2023-04-06T13:31:21;6.72;;;1.90;;
70543;SDS011;58097;48.364;-1.224;2023-04-06T13:33:46;8.57;;;2.05;;
70543;SDS011;58097;48.364;-1.224;2023-04-06T13:36:13;7.72;;;2.05;;
70543;SDS011;58097;48.364;-1.224;2023-04-06T13:38:38;11.68;;;2.40;;
70543;SDS011;58097;48.364;-1.224;2023-04-06T13:41:04;5.38;;;2.67;;
70543;SDS011;58097;48.364;-1.224;2023-04-06T13:43:30;10.15;;;2.10;;
70543;SDS011;58097;48.364;-1.224;2023-04-06T13:45:56;9.77;;;2.55;;
70543;SDS011;58097;48.364;-1.224;2023-04-06T13:48:24;11.65;;;3.20;;
70543;SDS011;58097;48.364;-1.224;2023-04-06T13:50:51;12.30;;;3.55;;
70543;SDS011;58097;48.364;-1.224;2023-04-06T13:53:16;13.27;;;3.92;;
70543;SDS011;58097;48.364;-1.224;2023-04-06T13:55:42;9.95;;;3.08;;
70543;SDS011;58097;48.364;-1.224;2023-04-06T13:58:08;9.73;;;2.50;;
70543;SDS011;58097;48.364;-1.224;2023-04-06T14:00:33;13.55;;;3.13;;
70543;SDS011;58097;48.364;-1.224;2023-04-06T14:02:59;11.50;;;2.28;;
70543;SDS011;58097;48.364;-1.224;2023-04-06T14:05:25;16.90;;;2.05;;
70543;SDS011;58097;48.364;-1.224;2023-04-06T14:07:52;10.77;;;1.77;;
70543;SDS011;58097;48.364;-1.224;2023-04-06T14:10:18;12.52;;;1.70;;
70543;SDS011;58097;48.364;-1.224;2023-04-06T14:12:46;7.82;;;2.20;;
70543;SDS011;58097;48.364;-1.224;2023-04-06T14:15:11;7.20;;;1.83;;
70543;SDS011;58097;48.364;-1.224;2023-04-06T14:17:37;7.55;;;1.63;;